Time;durP1;ratioP1;P1;durP2;ratioP2;P2;SDS_P1;SDS_P2;PMS_P1;PMS_P2;Temp;Humidity;BMP_temperature;BMP_pressure;BME280_temperature;BME280_humidity;BME280_pressure;Samples;Min_cycle;Max_cycle;Signal;HPM_P1;HPM_P2
2022/11/27 00:01:33;;;;;;;9.70;3.15;;;9.80;99.90;;;;;;5029871;28;20124;-81
2022/11/27 00:04:01;;;;;;;14.77;3.40;;;9.80;99.90;;;;;;5030716;28;20049;-81
2022/11/27 00:06:29;;;;;;;11.80;3.50;;;9.80;99.90;;;;;;5028323;28;20088;-81
2022/11/27 00:08:56;;;;;;;10.77;3.65;;;9.80;99.90;;;;;;5029128;28;20073;-81
2022/11/27 00:11:25;;;;;;;9.60;3.22;;;9.80;99.90;;;;;;5024964;28;20584;-81
2022/11/27 00:13:52;;;;;;;10.82;3.05;;;9.80;99.90;;;;;;5023256;28;20037;-81
2022/11/27 00:16:20;;;;;;;11.60;3.28;;;9.80;99.90;;;;;;5019666;28;20113;-80
2022/11/27 00:18:47;;;;;;;13.98;3.42;;;9.80;99.90;;;;;;5024471;28;20087;-81
2022/11/27 00:21:21;;;;;;;10.43;3.28;;;9.80;99.90;;;;;;5022747;28;20049;-81
2022/11/27 00:23:48;;;;;;;12.05;3.45;;;9.80;99.90;;;;;;5024893;28;20044;-81
2022/11/27 00:26:15;;;;;;;16.52;3.40;;;9.80;99.90;;;;;;5021993;28;20076;-81
2022/11/27 00:28:42;;;;;;;12.75;3.63;;;9.90;99.90;;;;;;5023315;28;20050;-81
2022/11/27 00:31:14;;;;;;;9.13;2.92;;;9.80;99.90;;;;;;5027035;28;20120;-81
2022/11/27 00:33:41;;;;;;;10.38;3.25;;;9.80;99.90;;;;;;5023462;28;20064;-81
2022/11/27 00:36:09;;;;;;;14.27;3.33;;;9.80;99.90;;;;;;5020728;28;20096;-81
2022/11/27 00:38:38;;;;;;;14.57;4.03;;;9.80;99.90;;;;;;5023529;28;21446;-81
2022/11/27 00:41:06;;;;;;;10.15;3.05;;;9.80;99.90;;;;;;5023098;28;20440;-81
2022/11/27 00:43:33;;;;;;;11.50;3.13;;;9.80;99.90;;;;;;5028516;28;20048;-81
2022/11/27 00:46:00;;;;;;;14.00;3.20;;;9.70;99.90;;;;;;5031006;28;20521;-81
2022/11/27 00:48:27;;;;;;;12.85;3.30;;;9.70;99.90;;;;;;5026054;28;20045;-81
2022/11/27 00:50:59;;;;;;;12.43;3.33;;;9.70;99.90;;;;;;5025266;28;20037;-81
2022/11/27 00:53:26;;;;;;;;;;;9.70;99.90;;;;;;5022926;28;20420;-81
2022/11/27 00:55:54;;;;;;;13.27;3.88;;;9.70;99.90;;;;;;5029022;28;20024;-81
2022/11/27 00:58:21;;;;;;;11.85;3.08;;;9.70;99.90;;;;;;5041911;28;20144;-81
2022/11/27 01:00:54;;;;;;;17.63;4.05;;;9.70;99.90;;;;;;5023996;28;20033;-81
2022/11/27 01:03:21;;;;;;;13.00;3.83;;;9.70;99.90;;;;;;5031149;28;20397;-81
2022/11/27 01:05:48;;;;;;;14.13;3.28;;;9.70;99.90;;;;;;5026535;28;20041;-81
2022/11/27 01:08:15;;;;;;;14.43;3.63;;;9.70;99.90;;;;;;5026255;28;20431;-81
2022/11/27 01:10:49;;;;;;;11.15;3.20;;;9.70;99.90;;;;;;5026724;28;20041;-81
2022/11/27 01:13:17;;;;;;;11.65;3.28;;;9.70;99.90;;;;;;5029289;28;20046;-81
2022/11/27 01:15:45;;;;;;;10.98;3.53;;;9.70;99.90;;;;;;5021240;28;20045;-81
2022/11/27 01:18:12;;;;;;;8.82;2.85;;;9.70;99.90;;;;;;5021217;28;20045;-81
2022/11/27 01:20:39;;;;;;;10.25;3.47;;;9.70;99.90;;;;;;5028486;28;20044;-81
2022/11/27 01:23:06;;;;;;;10.95;3.55;;;9.70;99.90;;;;;;5029245;28;20152;-81
2022/11/27 01:25:35;;;;;;;10.13;3.17;;;9.70;99.90;;;;;;5025544;28;20512;-81
2022/11/27 01:28:02;;;;;;;10.98;3.40;;;9.70;99.90;;;;;;5042696;22;20046;-80
2022/11/27 01:30:30;;;;;;;9.43;3.20;;;9.70;99.90;;;;;;5020732;28;20486;-81
2022/11/27 01:32:57;;;;;;;11.30;3.13;;;9.70;99.90;;;;;;5029714;28;20037;-81
2022/11/27 01:35:24;;;;;;;9.25;3.17;;;9.70;99.90;;;;;;5028811;28;20057;-81
2022/11/27 01:37:51;;;;;;;15.52;3.78;;;9.70;99.90;;;;;;5028433;28;20497;-81
2022/11/27 01:40:18;;;;;;;9.13;3.45;;;9.70;99.90;;;;;;5027951;28;20047;-81
2022/11/27 01:42:45;;;;;;;10.68;3.30;;;9.60;99.90;;;;;;5027260;28;20044;-80
2022/11/27 01:45:16;;;;;;;9.60;3.65;;;9.60;99.90;;;;;;5029064;28;20843;-81
2022/11/27 01:47:47;;;;;;;11.38;3.22;;;9.60;99.90;;;;;;5028326;28;20405;-81
2022/11/27 01:50:17;;;;;;;11.77;3.30;;;9.60;99.90;;;;;;5028326;28;20045;-81
2022/11/27 01:52:49;;;;;;;8.02;3.17;;;9.60;99.90;;;;;;5029071;28;20076;-81
2022/11/27 01:55:19;;;;;;;;;;;9.70;99.90;;;;;;5029538;28;20049;-81
2022/11/27 01:57:49;;;;;;;10.55;3.00;;;9.70;99.90;;;;;;5027116;28;20449;-81
2022/11/27 02:00:18;;;;;;;10.40;3.28;;;9.60;99.90;;;;;;5019221;28;20045;-81
2022/11/27 02:02:46;;;;;;;10.55;3.97;;;9.60;99.90;;;;;;5029029;28;20038;-81
2022/11/27 02:05:16;;;;;;;10.48;3.55;;;9.60;99.90;;;;;;5028973;28;20056;-81
2022/11/27 02:07:43;;;;;;;10.77;4.00;;;9.50;99.90;;;;;;5027035;28;20055;-81
2022/11/27 02:10:11;;;;;;;8.98;3.35;;;9.50;99.90;;;;;;5027814;28;20576;-81
2022/11/27 02:12:43;;;;;;;11.45;3.70;;;9.50;99.90;;;;;;5028597;28;20515;-81
2022/11/27 02:15:14;;;;;;;10.20;3.75;;;9.50;99.90;;;;;;5028398;28;20050;-81
2022/11/27 02:17:49;;;;;;;12.55;3.72;;;9.50;99.90;;;;;;5024416;28;20052;-81
2022/11/27 02:20:25;;;;;;;11.18;3.88;;;9.50;99.90;;;;;;5027079;28;20049;-81
2022/11/27 02:23:06;;;;;;;7.70;3.70;;;9.50;99.90;;;;;;5028824;28;20055;-81
2022/11/27 02:25:41;;;;;;;8.70;3.28;;;9.40;99.90;;;;;;5029008;28;20053;-81
2022/11/27 02:28:24;;;;;;;8.02;3.28;;;9.50;99.90;;;;;;5026968;28;20100;-81
2022/11/27 02:30:57;;;;;;;10.85;3.40;;;9.50;99.90;;;;;;5028608;28;20780;-81
2022/11/27 02:33:25;;;;;;;9.13;3.63;;;9.50;99.90;;;;;;5025948;28;20061;-81
2022/11/27 02:35:56;;;;;;;11.50;4.05;;;9.40;99.90;;;;;;5025237;28;20052;-81
2022/11/27 02:38:24;;;;;;;;;;;9.40;99.90;;;;;;5027393;28;20046;-81
2022/11/27 02:40:53;;;;;;;11.70;4.00;;;9.40;99.90;;;;;;5032453;28;19931;-81
2022/11/27 02:43:23;;;;;;;12.05;4.18;;;9.40;99.90;;;;;;5032154;28;20053;-81
2022/11/27 02:45:52;;;;;;;10.55;4.10;;;9.40;99.90;;;;;;5031881;28;20041;-81
2022/11/27 02:48:23;;;;;;;12.00;3.63;;;9.50;99.90;;;;;;5030910;28;20041;-81
2022/11/27 02:50:50;;;;;;;12.10;4.63;;;9.40;99.90;;;;;;5029139;28;20046;-81
2022/11/27 02:53:20;;;;;;;8.93;3.70;;;9.50;99.90;;;;;;5032001;28;20045;-81
2022/11/27 02:55:48;;;;;;;11.15;4.03;;;9.40;99.90;;;;;;5031273;28;20071;-81
2022/11/27 02:58:19;;;;;;;10.13;4.28;;;9.40;99.90;;;;;;5031632;28;20044;-80
2022/11/27 03:00:46;;;;;;;9.37;3.93;;;9.40;99.90;;;;;;5032077;28;20505;-80
2022/11/27 03:03:17;;;;;;;7.90;3.90;;;9.40;99.90;;;;;;5029658;28;20046;-80
2022/11/27 03:05:45;;;;;;;8.95;3.95;;;9.40;99.90;;;;;;5032142;28;20413;-80
2022/11/27 03:08:20;;;;;;;15.07;4.03;;;9.40;99.90;;;;;;5029431;28;20037;-80
2022/11/27 03:10:51;;;;;;;12.93;4.55;;;9.40;99.90;;;;;;5032112;28;20052;-80
2022/11/27 03:13:18;;;;;;;10.05;4.05;;;9.40;99.90;;;;;;5031088;28;20486;-80
2022/11/27 03:15:49;;;;;;;9.70;4.35;;;9.40;99.90;;;;;;5032052;28;20502;-80
2022/11/27 03:18:24;;;;;;;10.05;3.95;;;9.40;99.90;;;;;;5030754;28;20417;-80
2022/11/27 03:20:57;;;;;;;8.60;3.80;;;9.40;99.90;;;;;;5030720;28;20045;-80
2022/11/27 03:23:24;;;;;;;10.85;4.03;;;9.40;99.90;;;;;;5029960;28;20052;-80
2022/11/27 03:25:51;;;;;;;11.30;3.95;;;9.40;99.90;;;;;;5030566;28;20056;-80
2022/11/27 03:28:18;;;;;;;8.80;3.83;;;9.40;99.90;;;;;;5030983;28;20045;-80
2022/11/27 03:30:45;;;;;;;12.10;4.18;;;9.40;99.90;;;;;;5031976;28;20047;-80
2022/11/27 03:33:12;;;;;;;8.57;3.92;;;9.30;99.90;;;;;;5030064;28;20049;-80
2022/11/27 03:35:40;;;;;;;12.38;5.85;;;9.30;99.90;;;;;;5031673;28;20532;-80
2022/11/27 03:38:07;;;;;;;13.75;4.88;;;9.30;99.90;;;;;;5030072;28;20501;-80
2022/11/27 03:40:41;;;;;;;9.98;4.35;;;9.30;99.90;;;;;;5031651;28;20045;-80
2022/11/27 03:43:13;;;;;;;12.82;4.40;;;9.30;99.90;;;;;;5024370;28;20047;-80
2022/11/27 03:45:51;;;;;;;9.95;4.22;;;9.30;99.90;;;;;;5030929;28;20045;-80
2022/11/27 03:48:23;;;;;;;13.52;4.20;;;9.30;99.90;;;;;;5030619;28;20057;-80
2022/11/27 03:51:00;;;;;;;10.80;4.32;;;9.30;99.90;;;;;;5030230;28;20051;-80
2022/11/27 03:53:32;;;;;;;13.13;4.93;;;9.30;99.90;;;;;;5029604;28;20033;-80
2022/11/27 03:56:05;;;;;;;12.07;5.20;;;9.30;99.90;;;;;;5031322;28;20056;-80
2022/11/27 03:58:35;;;;;;;13.77;5.20;;;9.30;99.90;;;;;;5030631;28;20037;-80
2022/11/27 04:01:04;;;;;;;9.70;4.20;;;9.30;99.90;;;;;;5029793;28;20053;-80
2022/11/27 04:03:31;;;;;;;13.75;4.63;;;9.30;99.90;;;;;;5030250;28;20045;-80
2022/11/27 04:05:59;;;;;;;10.02;4.40;;;9.30;99.90;;;;;;5029364;28;20456;-80
2022/11/27 04:08:26;;;;;;;10.27;4.53;;;9.30;99.90;;;;;;5029835;28;20088;-80
2022/11/27 04:10:53;;;;;;;10.38;4.57;;;9.30;99.90;;;;;;5030759;28;20052;-80
2022/11/27 04:13:20;;;;;;;8.52;4.78;;;9.30;99.90;;;;;;5029487;28;20048;-80
2022/11/27 04:15:47;;;;;;;9.27;4.43;;;9.40;99.90;;;;;;5029459;28;20436;-80
2022/11/27 04:18:14;;;;;;;12.55;4.75;;;9.40;99.90;;;;;;5028052;28;20072;-80
2022/11/27 04:20:41;;;;;;;11.07;4.60;;;9.40;99.90;;;;;;5030893;28;20041;-80
2022/11/27 04:23:10;;;;;;;13.35;5.32;;;9.40;99.90;;;;;;5029014;28;20454;-79
2022/11/27 04:25:36;;;;;;;14.07;5.00;;;9.40;99.90;;;;;;5029000;28;20128;-81
2022/11/27 04:28:04;;;;;;;11.70;5.15;;;9.40;99.90;;;;;;5029324;28;20493;-80
2022/11/27 04:30:31;;;;;;;10.32;4.80;;;9.40;99.90;;;;;;5028203;28;20563;-80
2022/11/27 04:32:58;;;;;;;12.15;5.65;;;9.40;99.90;;;;;;5027766;28;20053;-80
2022/11/27 04:35:25;;;;;;;13.80;5.22;;;9.40;99.90;;;;;;5030188;28;20041;-80
2022/11/27 04:37:52;;;;;;;12.88;5.22;;;9.40;99.90;;;;;;5029741;28;20041;-80
2022/11/27 04:40:20;;;;;;;11.52;5.38;;;9.50;99.90;;;;;;5029206;28;20052;-80
2022/11/27 04:42:47;;;;;;;14.02;5.18;;;9.50;99.90;;;;;;5029675;28;20052;-80
2022/11/27 04:45:14;;;;;;;16.60;5.68;;;9.50;99.90;;;;;;5028663;28;20116;-80
2022/11/27 04:47:41;;;;;;;11.07;5.32;;;9.50;99.90;;;;;;5029270;28;20041;-80
2022/11/27 04:50:09;;;;;;;13.18;5.28;;;9.50;99.90;;;;;;5029211;28;20081;-80
2022/11/27 04:52:36;;;;;;;12.05;4.93;;;9.40;99.90;;;;;;5029553;28;20061;-80
2022/11/27 04:55:03;;;;;;;11.80;4.97;;;9.50;99.90;;;;;;5029811;28;20045;-80
2022/11/27 04:57:31;;;;;;;15.07;5.40;;;9.50;99.90;;;;;;5029428;28;20045;-81
2022/11/27 04:59:58;;;;;;;22.80;6.45;;;9.50;99.90;;;;;;5030289;28;20416;-80
2022/11/27 05:02:25;;;;;;;12.23;4.80;;;9.60;99.90;;;;;;5027147;28;20037;-80
2022/11/27 05:04:52;;;;;;;9.82;4.53;;;9.60;99.90;;;;;;5027100;28;20524;-80
2022/11/27 05:07:19;;;;;;;16.00;5.38;;;9.60;99.90;;;;;;5028166;28;20041;-81
2022/11/27 05:09:46;;;;;;;14.38;4.97;;;9.60;99.90;;;;;;5029239;28;20056;-80
2022/11/27 05:12:13;;;;;;;11.88;4.43;;;9.60;99.90;;;;;;5028394;28;20561;-81
2022/11/27 05:14:41;;;;;;;13.27;4.68;;;9.60;99.90;;;;;;5029504;28;20045;-80
2022/11/27 05:17:08;;;;;;;15.38;5.25;;;9.60;99.90;;;;;;5028509;28;20524;-80
2022/11/27 05:19:36;;;;;;;9.43;5.03;;;9.60;99.90;;;;;;5028286;28;20310;-80
2022/11/27 05:22:02;;;;;;;13.27;5.43;;;9.60;99.90;;;;;;5026023;28;20529;-80
2022/11/27 05:24:30;;;;;;;12.25;4.90;;;9.60;99.90;;;;;;5029519;28;20048;-80
2022/11/27 05:26:57;;;;;;;9.52;4.43;;;9.60;99.90;;;;;;5027324;28;20498;-80
2022/11/27 05:29:24;;;;;;;10.65;4.95;;;9.60;99.90;;;;;;5029099;28;20489;-80
2022/11/27 05:31:53;;;;;;;14.68;4.88;;;9.70;99.90;;;;;;5028613;28;20045;-80
2022/11/27 05:34:20;;;;;;;12.30;4.85;;;9.70;99.90;;;;;;5023076;28;20047;-80
2022/11/27 05:36:47;;;;;;;13.40;4.50;;;9.70;99.90;;;;;;5024518;28;20041;-80
2022/11/27 05:39:14;;;;;;;12.15;4.57;;;9.60;99.90;;;;;;5029439;28;20045;-80
2022/11/27 05:41:42;;;;;;;10.18;4.53;;;9.70;99.90;;;;;;5029507;28;20045;-80
2022/11/27 05:44:11;;;;;;;11.38;4.60;;;9.70;99.90;;;;;;5027925;28;20046;-81
2022/11/27 05:46:38;;;;;;;13.05;4.45;;;9.70;99.90;;;;;;5028556;28;20497;-80
2022/11/27 05:49:06;;;;;;;12.63;4.55;;;9.70;99.90;;;;;;5021841;28;20045;-80
2022/11/27 05:51:33;;;;;;;12.68;5.05;;;9.70;99.90;;;;;;5027799;28;20091;-80
2022/11/27 05:54:00;;;;;;;10.57;4.35;;;9.70;99.90;;;;;;5025266;28;20175;-80
2022/11/27 05:56:27;;;;;;;12.32;4.95;;;9.70;99.90;;;;;;5026344;28;20048;-80
2022/11/27 05:58:54;;;;;;;11.30;4.65;;;9.70;99.90;;;;;;5028397;28;20037;-80
2022/11/27 06:01:21;;;;;;;11.93;4.15;;;9.80;99.90;;;;;;5029382;28;20055;-80
2022/11/27 06:03:47;;;;;;;11.20;4.40;;;9.80;99.90;;;;;;5026745;28;20041;-80
2022/11/27 06:06:17;;;;;;;9.38;4.45;;;9.80;99.90;;;;;;5025949;28;20055;-80
2022/11/27 06:08:45;;;;;;;11.05;4.88;;;9.80;99.90;;;;;;5027512;28;20052;-80
2022/11/27 06:11:13;;;;;;;11.40;4.80;;;9.80;99.90;;;;;;5029073;28;20513;-80
2022/11/27 06:13:40;;;;;;;10.63;4.20;;;9.80;99.90;;;;;;5026724;28;20041;-80
2022/11/27 06:16:08;;;;;;;9.25;4.15;;;9.80;99.90;;;;;;5027198;28;20045;-80
2022/11/27 06:18:35;;;;;;;9.18;4.40;;;9.80;99.90;;;;;;5029011;28;20049;-79
2022/11/27 06:21:06;;;;;;;10.93;4.35;;;9.80;99.90;;;;;;5028733;28;20124;-80
2022/11/27 06:23:34;;;;;;;;;;;9.80;99.90;;;;;;5027142;28;20055;-80
2022/11/27 06:26:13;;;;;;;12.38;4.55;;;9.80;99.90;;;;;;5027047;28;20293;-80
2022/11/27 06:28:40;;;;;;;10.27;4.38;;;9.80;99.90;;;;;;5028354;28;20041;-79
2022/11/27 06:31:08;;;;;;;12.50;4.68;;;9.80;99.90;;;;;;5028821;28;20095;-79
2022/11/27 06:33:35;;;;;;;10.05;4.88;;;9.70;99.90;;;;;;5027556;28;20042;-79
2022/11/27 06:36:02;;;;;;;10.80;4.55;;;9.70;99.90;;;;;;5026198;28;20038;-78
2022/11/27 06:38:31;;;;;;;11.10;4.45;;;9.70;99.90;;;;;;5024936;28;20124;-78
2022/11/27 06:41:04;;;;;;;12.32;5.13;;;9.80;99.90;;;;;;5027939;28;20497;-78
2022/11/27 06:43:30;;;;;;;11.77;4.50;;;9.80;99.90;;;;;;5022881;28;20079;-78
2022/11/27 06:45:58;;;;;;;12.38;5.40;;;9.80;99.90;;;;;;5027726;28;20037;-78
2022/11/27 06:48:25;;;;;;;9.73;4.80;;;9.80;99.90;;;;;;5028490;28;20520;-78
2022/11/27 06:50:52;;;;;;;10.45;4.53;;;9.80;99.90;;;;;;5028626;28;20472;-78
2022/11/27 06:53:19;;;;;;;12.98;5.03;;;9.80;99.90;;;;;;5026936;28;20053;-78
2022/11/27 06:55:46;;;;;;;12.65;4.70;;;9.80;99.90;;;;;;5027765;28;20038;-78
2022/11/27 06:58:14;;;;;;;11.70;4.50;;;9.80;99.90;;;;;;5027712;28;20054;-78
2022/11/27 07:00:41;;;;;;;11.88;4.95;;;9.80;99.90;;;;;;5022424;28;20050;-78
2022/11/27 07:03:08;;;;;;;10.57;4.90;;;9.80;99.90;;;;;;5025771;28;20041;-78
2022/11/27 07:05:36;;;;;;;13.95;4.93;;;9.90;99.90;;;;;;5028038;28;20037;-79
2022/11/27 07:08:03;;;;;;;11.50;4.63;;;9.90;99.90;;;;;;5025770;28;20044;-80
2022/11/27 07:10:31;;;;;;;11.43;4.93;;;9.90;99.90;;;;;;5028346;28;20044;-80
2022/11/27 07:12:58;;;;;;;8.90;4.40;;;9.90;99.90;;;;;;5026743;28;20128;-78
2022/11/27 07:15:26;;;;;;;10.88;4.70;;;9.90;99.90;;;;;;5019460;28;20048;-78
2022/11/27 07:17:53;;;;;;;9.00;4.68;;;9.90;99.90;;;;;;5023976;28;20037;-77
2022/11/27 07:20:20;;;;;;;11.85;4.80;;;9.90;99.90;;;;;;5027419;28;20052;-77
2022/11/27 07:22:47;;;;;;;11.43;4.78;;;9.90;99.90;;;;;;5028829;28;20048;-77
2022/11/27 07:25:14;;;;;;;11.55;4.38;;;9.90;99.90;;;;;;5028477;28;20083;-77
2022/11/27 07:27:41;;;;;;;11.52;4.90;;;9.90;99.90;;;;;;5029860;28;20044;-77
2022/11/27 07:30:09;;;;;;;10.77;4.65;;;9.90;99.90;;;;;;5050004;22;20056;-76
2022/11/27 07:32:37;;;;;;;12.18;4.53;;;9.90;99.90;;;;;;5033333;28;20488;-76
2022/11/27 07:35:04;;;;;;;9.05;4.35;;;9.90;99.90;;;;;;5047212;28;20473;-76
2022/11/27 07:37:32;;;;;;;10.75;4.25;;;9.90;99.90;;;;;;5041294;28;20568;-76
2022/11/27 07:39:59;;;;;;;11.05;4.68;;;9.90;99.90;;;;;;5050066;28;20108;-76
2022/11/27 07:42:26;;;;;;;10.38;4.65;;;9.90;99.90;;;;;;5049222;28;20056;-77
2022/11/27 07:44:55;;;;;;;10.55;4.32;;;9.90;99.90;;;;;;5064679;28;20500;-76
2022/11/27 07:47:21;;;;;;;7.78;3.83;;;9.90;99.90;;;;;;5045717;28;20124;-76
2022/11/27 07:49:50;;;;;;;10.60;4.38;;;10.00;99.90;;;;;;5048212;28;20053;-75
2022/11/27 07:52:17;;;;;;;10.07;4.10;;;10.00;99.90;;;;;;5040587;28;20774;-76
2022/11/27 07:54:44;;;;;;;11.23;4.25;;;10.00;99.90;;;;;;5050913;28;20033;-76
2022/11/27 07:57:11;;;;;;;9.77;4.28;;;10.10;99.90;;;;;;5053844;28;20119;-76
2022/11/27 07:59:37;;;;;;;9.80;4.22;;;10.00;99.90;;;;;;5043093;28;20119;-77
2022/11/27 08:02:04;;;;;;;9.80;4.03;;;10.00;99.90;;;;;;5042830;28;20045;-76
2022/11/27 08:04:31;;;;;;;9.73;4.13;;;10.10;99.90;;;;;;5051307;28;20048;-76
2022/11/27 08:06:59;;;;;;;7.47;3.65;;;10.00;99.90;;;;;;5044741;28;20045;-77
2022/11/27 08:09:26;;;;;;;7.93;3.60;;;10.00;99.90;;;;;;5044450;28;20792;-76
2022/11/27 08:11:53;;;;;;;8.00;3.63;;;10.00;99.90;;;;;;5044506;28;20053;-76
2022/11/27 08:14:20;;;;;;;9.77;3.97;;;10.00;99.90;;;;;;5035371;28;20048;-76
2022/11/27 08:16:47;;;;;;;8.63;3.95;;;10.10;99.90;;;;;;5031545;28;20042;-76
2022/11/27 08:19:14;;;;;;;7.97;3.88;;;10.10;99.90;;;;;;5030893;28;20044;-74
2022/11/27 08:21:41;;;;;;;7.90;4.13;;;10.10;99.90;;;;;;5040422;28;20052;-75
2022/11/27 08:24:10;;;;;;;10.57;4.20;;;10.20;99.90;;;;;;5039271;28;20435;-74
2022/11/27 08:26:36;;;;;;;7.95;3.85;;;10.20;99.90;;;;;;5034277;28;20112;-75
2022/11/27 08:29:05;;;;;;;7.63;3.38;;;10.20;99.90;;;;;;5037616;28;20582;-75
2022/11/27 08:31:32;;;;;;;9.75;3.47;;;10.20;99.90;;;;;;5039863;28;20075;-75
2022/11/27 08:33:59;;;;;;;8.63;3.80;;;10.20;99.90;;;;;;5037534;28;20067;-75
2022/11/27 08:36:26;;;;;;;9.77;3.83;;;10.20;99.90;;;;;;5032015;28;20100;-75
2022/11/27 08:38:53;;;;;;;8.85;3.70;;;10.30;99.90;;;;;;5032407;28;20049;-76
2022/11/27 08:41:22;;;;;;;7.85;3.00;;;10.30;99.90;;;;;;5033970;28;20050;-73
2022/11/27 08:43:49;;;;;;;7.70;2.92;;;10.40;99.90;;;;;;5037203;28;20045;-74
2022/11/27 08:46:16;;;;;;;8.13;3.80;;;10.30;99.90;;;;;;5041141;28;20041;-74
2022/11/27 08:48:43;;;;;;;8.75;3.88;;;10.40;99.90;;;;;;5034696;28;20033;-73
2022/11/27 08:51:12;;;;;;;7.63;3.38;;;10.40;99.90;;;;;;5035126;28;20497;-75
2022/11/27 08:53:39;;;;;;;11.25;4.13;;;10.40;99.90;;;;;;5044512;28;20491;-75
2022/11/27 08:56:08;;;;;;;10.55;4.15;;;10.40;99.90;;;;;;5036715;28;20544;-74
2022/11/27 08:58:37;;;;;;;7.07;3.13;;;10.40;99.90;;;;;;5033403;28;20498;-75
2022/11/27 09:01:08;;;;;;;6.75;3.30;;;10.50;99.90;;;;;;5037594;28;20072;-75
2022/11/27 09:03:35;;;;;;;8.90;3.17;;;10.50;99.90;;;;;;5037215;28;20042;-75
2022/11/27 09:06:02;;;;;;;7.82;2.80;;;10.50;99.90;;;;;;5032884;28;20037;-77
2022/11/27 09:08:29;;;;;;;10.02;3.47;;;10.50;99.90;;;;;;5035009;28;20140;-77
2022/11/27 09:11:00;;;;;;;7.57;3.00;;;10.70;99.90;;;;;;5033997;28;20046;-78
2022/11/27 09:13:27;;;;;;;5.65;2.55;;;10.60;99.90;;;;;;5038312;28;20044;-77
2022/11/27 09:15:55;;;;;;;9.32;2.78;;;10.60;99.90;;;;;;5043992;28;20505;-77
2022/11/27 09:18:22;;;;;;;7.60;3.05;;;10.60;99.90;;;;;;5030481;28;20065;-77
2022/11/27 09:20:55;;;;;;;6.82;2.88;;;10.60;99.90;;;;;;5035658;28;20489;-77
2022/11/27 09:23:22;;;;;;;7.18;2.65;;;10.60;99.90;;;;;;5035360;28;20045;-77
2022/11/27 09:25:49;;;;;;;6.93;3.15;;;10.60;99.90;;;;;;5040012;28;20040;-77
2022/11/27 09:28:16;;;;;;;7.65;2.83;;;10.70;99.90;;;;;;5037030;28;20051;-78
2022/11/27 09:30:43;;;;;;;7.50;2.83;;;10.70;99.90;;;;;;5037217;28;20041;-78
2022/11/27 09:33:12;;;;;;;5.82;2.97;;;10.70;99.90;;;;;;5034528;28;20569;-77
2022/11/27 09:36:08;;;;;;;6.65;3.05;;;10.70;99.90;;;;;;5041176;28;20521;-78
2022/11/27 09:38:51;;;;;;;9.30;3.15;;;10.70;99.90;;;;;;5023542;28;20524;-78
2022/11/27 09:41:39;;;;;;;9.02;3.55;;;10.70;99.90;;;;;;5037155;28;20041;-77
2022/11/27 09:44:24;;;;;;;7.28;2.95;;;10.80;99.90;;;;;;5038515;28;20069;-77
2022/11/27 09:46:53;;;;;;;8.82;3.30;;;10.70;99.90;;;;;;5039764;28;20044;-77
2022/11/27 09:49:26;;;;;;;9.20;3.33;;;10.80;99.90;;;;;;5035231;28;20045;-77
2022/11/27 09:51:57;;;;;;;9.57;3.35;;;10.80;99.90;;;;;;5031371;28;20056;-77
2022/11/27 09:54:27;;;;;;;7.03;3.10;;;10.80;99.90;;;;;;5036413;28;20365;-77
2022/11/27 09:56:55;;;;;;;6.60;3.35;;;10.80;99.90;;;;;;5036518;28;20038;-78
2022/11/27 09:59:25;;;;;;;6.55;3.30;;;10.80;99.90;;;;;;5041437;28;20047;-77
2022/11/27 10:01:52;;;;;;;6.93;3.63;;;10.90;99.90;;;;;;5034444;28;20072;-78
2022/11/27 10:04:21;;;;;;;9.00;3.47;;;10.90;99.90;;;;;;5054222;28;20037;-77
2022/11/27 10:07:01;;;;;;;8.90;3.22;;;10.90;99.90;;;;;;5059365;28;20037;-77
2022/11/27 10:09:34;;;;;;;10.43;3.65;;;10.90;99.90;;;;;;5044516;28;20045;-77
2022/11/27 10:12:06;;;;;;;6.70;2.92;;;10.90;99.90;;;;;;5048626;28;20076;-78
2022/11/27 10:14:41;;;;;;;6.28;3.22;;;11.00;99.90;;;;;;5036210;28;20040;-77
2022/11/27 10:17:12;;;;;;;6.75;3.22;;;10.90;99.90;;;;;;5039797;28;20037;-77
2022/11/27 10:19:46;;;;;;;8.80;3.45;;;11.00;99.90;;;;;;5057280;28;20045;-77
2022/11/27 10:22:17;;;;;;;8.05;3.47;;;11.00;99.90;;;;;;5038492;28;20496;-78
2022/11/27 10:24:45;;;;;;;;;;;11.00;99.90;;;;;;5061780;28;20044;-78
2022/11/27 10:27:17;;;;;;;7.70;3.30;;;11.00;99.90;;;;;;5045137;28;19929;-78
2022/11/27 10:29:48;;;;;;;8.93;4.20;;;11.10;99.90;;;;;;5047570;28;20041;-78
2022/11/27 10:32:16;;;;;;;;;;;11.20;99.90;;;;;;5040579;28;20041;-78
2022/11/27 10:34:47;;;;;;;7.05;3.40;;;11.20;99.90;;;;;;5040021;28;20011;-77
2022/11/27 10:37:17;;;;;;;8.82;3.55;;;11.10;99.90;;;;;;5049048;28;20135;-77
2022/11/27 10:39:48;;;;;;;7.07;3.08;;;11.10;99.90;;;;;;5059711;28;20044;-78
2022/11/27 10:42:19;;;;;;;6.20;3.07;;;11.20;99.90;;;;;;5039727;28;20465;-77
2022/11/27 10:44:51;;;;;;;8.23;3.60;;;11.20;99.90;;;;;;5036591;28;20468;-78
2022/11/27 10:47:17;;;;;;;;;;;11.20;99.90;;;;;;5039835;28;20124;-78
2022/11/27 10:49:47;;;;;;;6.70;3.47;;;11.20;99.90;;;;;;5048268;28;20685;-79
2022/11/27 10:52:16;;;;;;;7.13;3.40;;;11.20;99.90;;;;;;5041195;28;20044;-80
2022/11/27 10:54:45;;;;;;;9.70;3.63;;;11.20;99.90;;;;;;5036815;28;20120;-78
2022/11/27 10:57:28;;;;;;;10.73;3.35;;;11.20;99.90;;;;;;5042296;28;20029;-79
2022/11/27 11:00:03;;;;;;;9.55;3.63;;;11.20;99.90;;;;;;5060513;28;20051;-77
2022/11/27 11:02:32;;;;;;;9.63;3.65;;;11.30;99.90;;;;;;5032180;28;20417;-78
2022/11/27 11:05:12;;;;;;;8.63;3.45;;;11.30;99.90;;;;;;5034900;28;20159;-79
2022/11/27 11:07:39;;;;;;;10.35;3.50;;;11.30;99.90;;;;;;5048167;28;20090;-79
2022/11/27 11:10:18;;;;;;;7.50;3.17;;;11.30;99.90;;;;;;5061506;28;20048;-79
2022/11/27 11:12:44;;;;;;;8.80;3.72;;;11.30;99.90;;;;;;5059149;28;20053;-80
2022/11/27 11:15:13;;;;;;;7.47;3.75;;;11.30;99.90;;;;;;5047530;28;20040;-79
2022/11/27 11:17:40;;;;;;;8.48;3.75;;;11.30;99.90;;;;;;5051054;28;20051;-78
2022/11/27 11:20:18;;;;;;;7.70;3.55;;;11.30;99.90;;;;;;5045372;28;20128;-78
2022/11/27 11:22:46;;;;;;;9.60;4.20;;;11.30;99.90;;;;;;5035510;28;20041;-78
2022/11/27 11:25:17;;;;;;;9.82;3.90;;;11.30;99.90;;;;;;5039910;28;20041;-79
2022/11/27 11:27:44;;;;;;;7.43;3.50;;;11.40;99.90;;;;;;5047612;28;20064;-79
2022/11/27 11:30:21;;;;;;;8.27;3.72;;;11.40;99.90;;;;;;5050794;28;20041;-79
2022/11/27 11:33:14;;;;;;;10.45;4.18;;;11.40;99.90;;;;;;5041888;28;20116;-79
2022/11/27 11:35:51;;;;;;;9.05;4.22;;;11.40;99.90;;;;;;5044467;28;20132;-79
2022/11/27 11:38:28;;;;;;;7.53;3.80;;;11.30;99.90;;;;;;5054306;28;20098;-79
2022/11/27 11:41:01;;;;;;;8.85;3.80;;;11.30;99.90;;;;;;5060583;28;20116;-79
2022/11/27 11:43:29;;;;;;;6.90;3.53;;;11.40;99.90;;;;;;5030853;28;20046;-79
2022/11/27 11:46:06;;;;;;;7.65;3.60;;;11.30;99.90;;;;;;5030281;28;20049;-77
2022/11/27 11:48:33;;;;;;;9.05;3.80;;;11.30;99.90;;;;;;5040608;28;20120;-77
2022/11/27 11:51:08;;;;;;;8.13;3.92;;;11.40;99.90;;;;;;5043934;28;20124;-78
2022/11/27 11:53:37;;;;;;;7.32;3.78;;;11.40;99.90;;;;;;5037342;28;20079;-78
2022/11/27 11:56:16;;;;;;;10.13;4.00;;;11.40;99.90;;;;;;5038114;28;20072;-79
2022/11/27 11:58:52;;;;;;;6.95;3.10;;;11.60;99.90;;;;;;5030222;28;20130;-79
2022/11/27 12:01:39;;;;;;;7.80;3.72;;;11.40;99.90;;;;;;5031915;28;20049;-79
2022/11/27 12:04:21;;;;;;;11.43;4.28;;;11.40;99.90;;;;;;5032621;28;20069;-79
2022/11/27 12:06:55;;;;;;;140.07;11.18;;;11.40;99.90;;;;;;5038818;28;20044;-76
2022/11/27 12:09:31;;;;;;;10.00;4.15;;;11.40;99.90;;;;;;5035574;28;20121;-77
2022/11/27 12:12:01;;;;;;;7.28;3.75;;;11.40;99.90;;;;;;5033025;28;20135;-76
2022/11/27 12:14:40;;;;;;;9.57;3.70;;;11.40;99.90;;;;;;5049563;28;20120;-80
2022/11/27 12:17:29;;;;;;;8.32;3.65;;;11.40;99.90;;;;;;5038470;28;20037;-80
2022/11/27 12:20:05;;;;;;;9.80;3.70;;;11.40;99.90;;;;;;5035326;28;20041;-81
2022/11/27 12:23:03;;;;;;;7.78;3.40;;;11.40;99.90;;;;;;5036076;28;20518;-81
2022/11/27 12:25:34;;;;;;;7.55;3.60;;;11.40;99.90;;;;;;5026880;28;20065;-81
2022/11/27 12:28:11;;;;;;;8.60;3.15;;;11.40;99.90;;;;;;5032171;28;20048;-81
2022/11/27 12:30:44;;;;;;;8.45;3.30;;;11.40;99.90;;;;;;5030875;28;20116;-80
2022/11/27 12:33:28;;;;;;;6.40;3.40;;;11.30;99.90;;;;;;5031656;28;20060;-80
2022/11/27 12:36:01;;;;;;;6.63;3.30;;;11.30;99.90;;;;;;5038676;28;20033;-81
2022/11/27 12:38:41;;;;;;;7.97;3.35;;;11.30;99.90;;;;;;5030180;28;20033;-81
2022/11/27 12:41:35;;;;;;;6.57;3.00;;;11.40;99.90;;;;;;5034873;28;20038;-80
2022/11/27 12:44:02;;;;;;;6.32;3.10;;;11.40;99.90;;;;;;5014957;28;20397;-80
2022/11/27 12:46:36;;;;;;;8.30;2.80;;;11.40;99.90;;;;;;5032312;28;20045;-80
2022/11/27 12:49:05;;;;;;;12.00;3.17;;;11.40;99.90;;;;;;5033703;28;20046;-80
2022/11/27 12:51:37;;;;;;;7.03;2.88;;;11.40;99.90;;;;;;5030920;28;20045;-81
2022/11/27 12:54:11;;;;;;;7.30;3.22;;;11.40;99.90;;;;;;5044795;28;20057;-80
2022/11/27 12:56:42;;;;;;;6.20;2.88;;;11.40;99.90;;;;;;5033570;28;20042;-81
2022/11/27 12:59:14;;;;;;;7.00;2.60;;;11.40;99.90;;;;;;5036275;28;20045;-81
2022/11/27 13:01:45;;;;;;;8.02;3.35;;;11.50;99.90;;;;;;5035984;28;20053;-81
2022/11/27 13:04:19;;;;;;;6.07;2.83;;;11.50;99.90;;;;;;5040200;28;20049;-80